Time;durP1;ratioP1;P1;durP2;ratioP2;P2;SDS_P1;SDS_P2;PMS_P1;PMS_P2;Temp;Humidity;BMP_temperature;BMP_pressure;BME280_temperature;BME280_humidity;BME280_pressure;Samples;Min_cycle;Max_cycle;Signal;HPM_P1;HPM_P2
2022/06/24 00:01:57;;;;;;;4.63;2.50;;;23.50;78.30;;;;;;4825178;29;20413;-62
2022/06/24 00:04:25;;;;;;;5.70;2.47;;;23.50;78.60;;;;;;4825400;29;20058;-62
2022/06/24 00:06:51;;;;;;;5.43;2.58;;;23.50;78.40;;;;;;4808901;29;20405;-63
2022/06/24 00:09:18;;;;;;;4.65;2.25;;;23.40;78.30;;;;;;4825242;29;20053;-62
2022/06/24 00:11:44;;;;;;;4.70;2.50;;;23.40;78.20;;;;;;4793500;29;20089;-62
2022/06/24 00:14:13;;;;;;;5.05;2.72;;;23.40;78.30;;;;;;4825191;29;20050;-61
2022/06/24 00:17:00;;;;;;;4.32;2.55;;;23.40;78.50;;;;;;4824804;29;20066;-62
2022/06/24 00:19:27;;;;;;;4.88;2.80;;;23.30;79.40;;;;;;4809243;29;20061;-60
2022/06/24 00:22:12;;;;;;;4.03;2.60;;;23.30;79.70;;;;;;4824886;29;20054;-62
2022/06/24 00:24:39;;;;;;;5.05;2.63;;;23.30;79.40;;;;;;4824820;29;20450;-67
2022/06/24 00:27:20;;;;;;;5.88;3.00;;;23.20;79.60;;;;;;4824818;29;20158;-62
2022/06/24 00:29:47;;;;;;;6.22;2.50;;;23.20;79.90;;;;;;4824709;29;20054;-62
2022/06/24 00:32:13;;;;;;;6.45;2.50;;;23.10;79.60;;;;;;4824922;29;20050;-62
2022/06/24 00:34:40;;;;;;;5.57;2.45;;;23.00;79.60;;;;;;4824950;29;20046;-62
2022/06/24 00:37:26;;;;;;;6.00;2.60;;;22.90;79.80;;;;;;4808839;29;20519;-62
2022/06/24 00:39:54;;;;;;;3.35;2.50;;;22.80;81.20;;;;;;4824350;29;20058;-62
2022/06/24 00:42:22;;;;;;;4.13;2.58;;;22.70;81.70;;;;;;4824788;29;20374;-62
2022/06/24 00:44:54;;;;;;;3.90;2.72;;;22.60;81.90;;;;;;4824420;29;20054;-62
2022/06/24 00:47:22;;;;;;;3.75;2.67;;;22.60;82.20;;;;;;4824615;29;20331;-62
2022/06/24 00:49:49;;;;;;;3.97;2.70;;;22.60;82.40;;;;;;4824411;29;20050;-62
2022/06/24 00:52:15;;;;;;;3.58;2.40;;;22.60;81.50;;;;;;4824635;29;20042;-62
2022/06/24 00:54:43;;;;;;;6.43;2.60;;;22.50;81.50;;;;;;4824566;29;20056;-62
2022/06/24 00:57:09;;;;;;;5.65;2.78;;;22.50;82.00;;;;;;4824462;29;20056;-62
2022/06/24 00:59:36;;;;;;;5.18;2.70;;;22.40;83.00;;;;;;4824533;29;20058;-62
2022/06/24 01:02:06;;;;;;;5.85;3.30;;;22.40;83.30;;;;;;4824423;29;20381;-61
2022/06/24 01:04:34;;;;;;;6.20;2.85;;;22.40;85.60;;;;;;4808437;29;20090;-61
2022/06/24 01:07:00;;;;;;;6.90;3.08;;;22.30;86.70;;;;;;4824246;29;20103;-63
2022/06/24 01:09:26;;;;;;;4.68;2.80;;;22.30;87.60;;;;;;4824012;29;20050;-62
2022/06/24 01:11:52;;;;;;;4.07;2.40;;;22.20;86.00;;;;;;4807692;29;20073;-62
2022/06/24 01:14:18;;;;;;;6.40;2.53;;;22.10;85.80;;;;;;4824081;29;20054;-62
2022/06/24 01:16:44;;;;;;;5.28;2.70;;;21.90;86.40;;;;;;4823469;29;20055;-64
2022/06/24 01:19:13;;;;;;;3.53;2.60;;;21.80;86.90;;;;;;4824028;29;20058;-62
2022/06/24 01:21:42;;;;;;;4.10;2.60;;;21.80;87.70;;;;;;4823692;29;20493;-61
2022/06/24 01:24:10;;;;;;;4.88;2.65;;;21.70;88.10;;;;;;4807834;29;20061;-62
2022/06/24 01:26:38;;;;;;;3.38;2.42;;;21.60;87.40;;;;;;4824004;29;20053;-63
2022/06/24 01:29:04;;;;;;;5.20;2.80;;;21.50;88.30;;;;;;4823308;29;20118;-62
2022/06/24 01:31:30;;;;;;;4.22;2.72;;;21.40;88.50;;;;;;4823698;29;20050;-62
2022/06/24 01:33:56;;;;;;;4.95;2.65;;;21.30;89.00;;;;;;4823186;29;20126;-62
2022/06/24 01:36:22;;;;;;;3.85;2.70;;;21.20;90.20;;;;;;4823746;29;20069;-61
2022/06/24 01:38:48;;;;;;;5.63;2.63;;;21.20;90.00;;;;;;4823779;29;20054;-61
2022/06/24 01:41:14;;;;;;;6.22;3.15;;;21.10;90.00;;;;;;4823844;29;20130;-61
2022/06/24 01:43:40;;;;;;;3.50;2.55;;;21.00;90.40;;;;;;4823846;29;20537;-62
2022/06/24 01:46:06;;;;;;;7.53;3.00;;;21.00;90.40;;;;;;4823258;29;20050;-61
2022/06/24 01:48:32;;;;;;;5.07;2.85;;;21.00;90.30;;;;;;4807457;29;20400;-61
2022/06/24 01:50:58;;;;;;;4.20;2.90;;;20.90;89.80;;;;;;4821866;29;20481;-62
2022/06/24 01:53:24;;;;;;;7.25;3.45;;;20.90;89.10;;;;;;4823706;29;20050;-62
2022/06/24 01:55:49;;;;;;;4.05;2.58;;;20.90;89.60;;;;;;4807148;29;20046;-63
2022/06/24 01:58:15;;;;;;;4.57;3.30;;;20.90;89.60;;;;;;4807240;29;20104;-61
2022/06/24 02:00:41;;;;;;;6.25;3.22;;;20.80;89.60;;;;;;4807129;29;20053;-61
2022/06/24 02:03:07;;;;;;;4.97;3.05;;;20.80;89.10;;;;;;4823016;29;20099;-61
2022/06/24 02:05:33;;;;;;;4.60;2.80;;;20.80;89.10;;;;;;4823495;29;20558;-61
2022/06/24 02:07:59;;;;;;;4.43;2.90;;;20.80;88.80;;;;;;4823043;29;20138;-61
2022/06/24 02:13:26;;;;;;;5.93;2.90;;;20.80;88.30;;;;;;4822977;29;20309;-62
2022/06/24 02:16:00;;;;;;;5.90;3.28;;;20.80;88.60;;;;;;4823092;29;20393;-62
2022/06/24 02:18:27;;;;;;;4.68;2.90;;;20.80;88.50;;;;;;4807059;29;20062;-61
2022/06/24 02:20:52;;;;;;;4.88;3.00;;;20.80;88.50;;;;;;4822896;29;20060;-64
2022/06/24 02:23:19;;;;;;;4.22;2.90;;;20.70;88.60;;;;;;4823004;29;20050;-62
2022/06/24 02:25:49;;;;;;;5.72;3.30;;;20.70;88.40;;;;;;4823043;29;20142;-62
2022/06/24 02:28:15;;;;;;;5.40;3.40;;;20.70;88.30;;;;;;4822692;29;20065;-61
2022/06/24 02:30:42;;;;;;;5.30;2.92;;;20.70;88.00;;;;;;4806740;29;20056;-61
2022/06/24 02:33:08;;;;;;;5.47;3.17;;;20.60;88.90;;;;;;4822431;29;20097;-61
2022/06/24 02:35:35;;;;;;;5.10;3.20;;;20.50;88.90;;;;;;4823146;29;20057;-61
2022/06/24 02:38:01;;;;;;;6.35;3.83;;;20.40;89.20;;;;;;4821675;29;20072;-61
2022/06/24 02:43:20;;;;;;;4.78;3.28;;;20.40;89.60;;;;;;4822606;29;20061;-62
2022/06/24 02:46:00;;;;;;;4.68;2.83;;;20.40;88.90;;;;;;4823000;29;20137;-61
2022/06/24 02:48:26;;;;;;;5.43;3.30;;;20.30;88.90;;;;;;4822609;29;20511;-62
2022/06/24 02:50:57;;;;;;;6.32;3.22;;;20.30;88.70;;;;;;4806573;29;20053;-62
2022/06/24 02:53:24;;;;;;;5.85;3.15;;;20.30;89.10;;;;;;4822602;29;20077;-61
2022/06/24 02:55:55;;;;;;;5.07;3.22;;;20.30;88.90;;;;;;4822586;29;20129;-61
2022/06/24 02:58:21;;;;;;;4.35;3.35;;;20.30;88.60;;;;;;4822265;29;20053;-62
2022/06/24 03:00:47;;;;;;;4.15;3.35;;;20.30;88.80;;;;;;4822299;29;20053;-62
2022/06/24 03:03:15;;;;;;;4.65;3.88;;;20.30;88.60;;;;;;4822207;29;20497;-62
2022/06/24 03:05:42;;;;;;;5.45;3.67;;;20.20;88.70;;;;;;4822716;29;20177;-62
2022/06/24 03:08:09;;;;;;;4.43;3.65;;;20.20;88.60;;;;;;4822384;29;20050;-63
2022/06/24 03:10:35;;;;;;;4.43;3.60;;;20.10;88.80;;;;;;4822583;29;20057;-62
2022/06/24 03:13:01;;;;;;;4.60;3.55;;;20.10;88.90;;;;;;4822596;29;20050;-62
2022/06/24 03:15:28;;;;;;;7.03;3.95;;;20.10;89.60;;;;;;4822345;29;20057;-62
2022/06/24 03:17:53;;;;;;;5.97;4.13;;;20.00;89.30;;;;;;4822444;29;20058;-62
2022/06/24 03:20:19;;;;;;;4.72;3.60;;;20.00;89.80;;;;;;4822175;29;20051;-62
2022/06/24 03:22:45;;;;;;;5.25;4.00;;;19.90;90.00;;;;;;4791297;29;20060;-64
2022/06/24 03:25:10;;;;;;;7.63;4.10;;;19.90;89.80;;;;;;4805958;29;20504;-62
2022/06/24 03:27:37;;;;;;;5.38;3.70;;;19.90;90.00;;;;;;4805930;29;20194;-62
2022/06/24 03:30:07;;;;;;;5.75;3.75;;;19.90;89.80;;;;;;4822299;29;20530;-62
2022/06/24 03:32:33;;;;;;;8.10;4.05;;;19.90;90.10;;;;;;4822428;29;20078;-62
2022/06/24 03:35:00;;;;;;;5.55;3.63;;;19.90;90.10;;;;;;4822378;29;20051;-62
2022/06/24 03:37:26;;;;;;;8.23;4.03;;;20.00;90.30;;;;;;4821939;29;20042;-63
2022/06/24 03:39:52;;;;;;;4.45;3.55;;;20.00;90.40;;;;;;4806147;29;20054;-62
2022/06/24 03:42:18;;;;;;;4.85;3.70;;;20.00;90.30;;;;;;4822075;29;20154;-62
2022/06/24 03:44:43;;;;;;;6.28;3.15;;;20.00;90.20;;;;;;4806047;29;20108;-65
2022/06/24 03:47:09;;;;;;;5.70;4.03;;;20.00;90.20;;;;;;4805602;29;20053;-63
2022/06/24 03:49:35;;;;;;;5.72;3.72;;;20.00;90.30;;;;;;4822189;29;20382;-62
2022/06/24 03:52:00;;;;;;;6.10;3.65;;;20.00;90.30;;;;;;4776024;29;20125;-62
2022/06/24 03:54:26;;;;;;;6.25;3.70;;;20.00;90.30;;;;;;4822001;29;20084;-62
2022/06/24 03:56:52;;;;;;;6.05;3.70;;;20.00;90.30;;;;;;4805811;29;20462;-62
2022/06/24 03:59:18;;;;;;;6.03;4.10;;;20.00;90.50;;;;;;4821811;29;20166;-62
2022/06/24 04:01:44;;;;;;;11.45;3.90;;;20.00;90.40;;;;;;4822001;29;20060;-62
2022/06/24 04:04:09;;;;;;;5.43;3.80;;;20.00;90.50;;;;;;4821870;29;20333;-61
2022/06/24 04:06:35;;;;;;;5.88;3.60;;;20.00;90.70;;;;;;4822038;29;20046;-61
2022/06/24 04:09:01;;;;;;;4.53;3.70;;;20.00;90.70;;;;;;4805557;29;20128;-61
2022/06/24 04:11:27;;;;;;;5.15;3.67;;;20.00;90.60;;;;;;4805601;29;20096;-61
2022/06/24 04:13:52;;;;;;;4.07;3.22;;;20.00;90.70;;;;;;4823346;29;20062;-61
2022/06/24 04:16:18;;;;;;;7.03;4.18;;;20.00;90.90;;;;;;4824753;29;20061;-61
2022/06/24 04:18:44;;;;;;;5.07;3.80;;;20.10;90.80;;;;;;4824768;29;20057;-62
2022/06/24 04:21:17;;;;;;;5.32;3.55;;;20.10;90.60;;;;;;4824392;29;20090;-63
2022/06/24 04:23:44;;;;;;;5.57;3.90;;;20.20;90.60;;;;;;4779211;29;20090;-62
2022/06/24 04:26:10;;;;;;;4.82;3.55;;;20.20;90.60;;;;;;4824380;29;20050;-63
2022/06/24 04:28:37;;;;;;;6.65;3.90;;;20.30;90.60;;;;;;4805453;29;20138;-62
2022/06/24 04:31:06;;;;;;;5.00;3.80;;;20.30;90.50;;;;;;4806914;29;20051;-63
2022/06/24 04:33:32;;;;;;;6.40;4.03;;;20.40;90.50;;;;;;4804988;29;20105;-62
2022/06/24 04:35:57;;;;;;;6.00;3.58;;;20.50;90.50;;;;;;4807019;29;20183;-62
2022/06/24 04:38:23;;;;;;;6.15;3.50;;;20.60;90.40;;;;;;4805111;29;20082;-62
2022/06/24 04:40:49;;;;;;;5.57;3.70;;;20.70;90.40;;;;;;4806687;29;20097;-63
2022/06/24 04:43:15;;;;;;;5.90;3.45;;;20.80;90.20;;;;;;4806377;29;20098;-62
2022/06/24 04:45:44;;;;;;;5.40;3.85;;;21.00;90.10;;;;;;4806526;29;20097;-61
2022/06/24 04:48:10;;;;;;;8.55;4.00;;;21.10;90.10;;;;;;4806225;29;20050;-61
2022/06/24 04:50:36;;;;;;;7.07;3.60;;;21.20;90.00;;;;;;4806415;29;20617;-61
2022/06/24 04:53:01;;;;;;;6.60;3.85;;;21.40;89.80;;;;;;4806309;29;20142;-61
2022/06/24 04:55:27;;;;;;;7.20;3.85;;;21.80;89.40;;;;;;4806321;29;20047;-62
2022/06/24 04:57:54;;;;;;;4.95;3.60;;;22.20;88.80;;;;;;4806166;29;20516;-62
2022/06/24 05:00:20;;;;;;;5.43;3.50;;;22.40;88.40;;;;;;4804738;29;20050;-61
2022/06/24 05:02:45;;;;;;;7.38;3.42;;;22.70;88.90;;;;;;4806253;29;20494;-61
2022/06/24 05:05:12;;;;;;;9.02;3.55;;;23.40;88.30;;;;;;4805398;29;20378;-62
2022/06/24 05:07:38;;;;;;;7.32;3.42;;;23.90;86.20;;;;;;4805181;29;20058;-62
2022/06/24 05:10:05;;;;;;;5.90;3.40;;;24.40;86.60;;;;;;4806065;29;20043;-62
2022/06/24 05:12:31;;;;;;;5.55;3.47;;;24.60;84.40;;;;;;4805672;29;20043;-61
2022/06/24 05:14:57;;;;;;;5.53;3.70;;;24.50;84.20;;;;;;4804983;29;20076;-63
2022/06/24 05:17:24;;;;;;;6.35;3.55;;;24.30;84.50;;;;;;4805777;29;20098;-62
2022/06/24 05:19:50;;;;;;;6.68;3.63;;;24.10;84.40;;;;;;4805906;29;20484;-62
2022/06/24 05:22:16;;;;;;;7.25;3.72;;;24.20;85.20;;;;;;4805699;29;20079;-62
2022/06/24 05:24:42;;;;;;;6.18;3.40;;;24.70;85.00;;;;;;4804521;29;20082;-62
2022/06/24 05:27:08;;;;;;;6.28;3.38;;;24.90;83.20;;;;;;4805039;29;20461;-61
2022/06/24 05:29:34;;;;;;;4.35;3.10;;;24.80;82.60;;;;;;4823394;29;20133;-63
2022/06/24 05:31:59;;;;;;;5.90;3.17;;;24.60;82.90;;;;;;4823690;29;20099;-62
2022/06/24 05:34:25;;;;;;;5.38;3.22;;;24.40;83.10;;;;;;4823174;29;20306;-62
2022/06/24 05:36:51;;;;;;;8.30;3.20;;;24.20;83.90;;;;;;4823825;29;20046;-62
2022/06/24 05:39:17;;;;;;;6.57;3.28;;;24.30;84.60;;;;;;4823939;29;20058;-66
2022/06/24 05:41:43;;;;;;;7.80;3.40;;;24.80;84.50;;;;;;4823780;29;20053;-63
2022/06/24 05:44:09;;;;;;;6.80;3.30;;;25.50;83.30;;;;;;4823421;29;20057;-62
2022/06/24 05:46:35;;;;;;;4.40;2.90;;;26.20;81.00;;;;;;4823211;29;20050;-62
2022/06/24 05:49:01;;;;;;;5.18;3.35;;;26.70;80.60;;;;;;4823629;29;20201;-61
2022/06/24 05:51:28;;;;;;;6.80;3.58;;;27.10;79.60;;;;;;4822204;29;20088;-62
2022/06/24 05:56:38;;;;;;;4.80;3.85;;;27.80;80.10;;;;;;4822602;29;20549;-62
2022/06/24 05:59:04;;;;;;;9.73;5.05;;;27.50;80.30;;;;;;4823129;29;20149;-62
2022/06/24 06:01:30;;;;;;;7.03;4.85;;;27.10;81.50;;;;;;4822951;29;20046;-61
2022/06/24 06:03:56;;;;;;;7.50;5.15;;;26.50;83.10;;;;;;4806795;29;20110;-63
2022/06/24 06:06:23;;;;;;;9.20;5.45;;;26.00;84.40;;;;;;4822960;29;20480;-62
2022/06/24 06:08:49;;;;;;;7.88;5.25;;;25.40;86.50;;;;;;4823135;29;20370;-62
2022/06/24 06:11:19;;;;;;;11.18;5.32;;;24.90;88.60;;;;;;4823004;29;20057;-62
2022/06/24 06:13:47;;;;;;;7.97;5.40;;;24.40;89.80;;;;;;4822996;29;20058;-61
2022/06/24 06:16:13;;;;;;;7.97;5.78;;;24.00;91.60;;;;;;4806622;29;20073;-62
2022/06/24 06:18:39;;;;;;;7.82;4.65;;;23.70;92.60;;;;;;4822503;29;20130;-61
2022/06/24 06:21:09;;;;;;;10.65;4.53;;;23.40;93.90;;;;;;4806248;29;20054;-61
2022/06/24 06:23:38;;;;;;;11.38;5.82;;;23.20;95.50;;;;;;4822453;29;20512;-64
2022/06/24 06:26:05;;;;;;;24.45;9.02;;;23.00;95.60;;;;;;4806622;29;20161;-63
2022/06/24 06:28:32;;;;;;;19.42;7.63;;;22.80;99.10;;;;;;4803248;29;20145;-63
2022/06/24 06:30:58;;;;;;;10.68;5.95;;;22.40;99.90;;;;;;4804867;29;20390;-62
2022/06/24 06:33:25;;;;;;;13.38;6.53;;;22.10;99.90;;;;;;4804521;29;20116;-68
2022/06/24 06:35:51;;;;;;;10.23;5.30;;;21.80;99.90;;;;;;4803106;29;20058;-62
2022/06/24 06:38:17;;;;;;;9.15;4.95;;;21.60;99.90;;;;;;4804295;29;20387;-62
2022/06/24 06:40:43;;;;;;;12.85;5.22;;;21.40;99.90;;;;;;4804176;29;20179;-61
2022/06/24 06:43:09;;;;;;;10.55;5.05;;;21.40;99.90;;;;;;4804747;29;20045;-63
2022/06/24 06:45:38;;;;;;;11.68;5.25;;;21.30;99.90;;;;;;4802603;29;20474;-62
2022/06/24 06:48:05;;;;;;;11.98;5.60;;;21.30;99.90;;;;;;4803840;29;20058;-62
2022/06/24 06:50:31;;;;;;;11.15;4.60;;;21.30;99.90;;;;;;4804470;29;20047;-63
2022/06/24 06:52:57;;;;;;;11.57;6.65;;;21.30;99.90;;;;;;4804455;29;20113;-61
2022/06/24 06:55:23;;;;;;;14.90;7.68;;;21.30;99.90;;;;;;4803055;29;20509;-62
2022/06/24 06:57:50;;;;;;;13.38;9.02;;;21.30;99.90;;;;;;4803179;29;20089;-62
2022/06/24 07:00:16;;;;;;;14.65;9.70;;;21.40;99.90;;;;;;4802862;29;20301;-62
2022/06/24 07:02:42;;;;;;;14.95;10.43;;;21.40;99.90;;;;;;4802762;29;20046;-61
2022/06/24 07:05:08;;;;;;;13.65;9.43;;;21.50;99.90;;;;;;4804067;29;20102;-62
2022/06/24 07:07:34;;;;;;;14.60;9.68;;;21.50;99.90;;;;;;4802310;29;20051;-61
2022/06/24 07:10:00;;;;;;;15.93;9.77;;;21.50;99.90;;;;;;4803215;29;20047;-62
2022/06/24 07:12:27;;;;;;;14.38;9.02;;;21.50;99.90;;;;;;4788222;29;20414;-62
2022/06/24 07:14:53;;;;;;;13.52;8.73;;;21.40;99.90;;;;;;4802972;29;20063;-63
2022/06/24 07:17:19;;;;;;;14.63;9.05;;;21.40;99.90;;;;;;4802440;29;20374;-62
2022/06/24 07:19:45;;;;;;;14.55;8.60;;;21.40;99.90;;;;;;4803458;29;20131;-61
2022/06/24 07:22:12;;;;;;;12.10;8.23;;;21.50;99.90;;;;;;4804021;29;20501;-61
2022/06/24 07:24:38;;;;;;;13.00;8.52;;;21.50;99.90;;;;;;4803652;29;20050;-62
2022/06/24 07:27:05;;;;;;;14.77;9.50;;;21.50;99.90;;;;;;4802980;29;20512;-62
2022/06/24 07:29:33;;;;;;;21.98;9.18;;;21.40;99.90;;;;;;4822165;29;20145;-67
2022/06/24 07:32:00;;;;;;;12.73;8.77;;;21.40;99.90;;;;;;4822395;29;20061;-64
2022/06/24 07:34:30;;;;;;;13.77;8.20;;;21.30;99.90;;;;;;4806104;29;20133;-62
2022/06/24 07:36:57;;;;;;;14.90;8.52;;;21.30;99.90;;;;;;4822336;29;20059;-63
2022/06/24 07:39:23;;;;;;;13.98;8.82;;;21.30;99.90;;;;;;4822357;29;20062;-61
2022/06/24 07:41:49;;;;;;;12.32;7.75;;;21.30;99.90;;;;;;4822011;29;20127;-62
2022/06/24 07:44:15;;;;;;;12.27;7.63;;;21.30;99.90;;;;;;4822234;29;20054;-64
2022/06/24 07:46:41;;;;;;;12.80;8.13;;;21.30;99.90;;;;;;4790652;29;20145;-61
2022/06/24 07:49:07;;;;;;;12.98;8.07;;;21.30;99.90;;;;;;4794294;29;20054;-63
2022/06/24 07:51:32;;;;;;;13.77;7.05;;;21.40;99.90;;;;;;4809074;29;20054;-63
2022/06/24 07:53:58;;;;;;;11.55;7.35;;;21.40;99.90;;;;;;4825219;29;20058;-62
2022/06/24 07:59:08;;;;;;;9.02;6.25;;;21.40;99.90;;;;;;4825295;29;20050;-64
2022/06/24 08:01:34;;;;;;;9.18;6.32;;;21.40;99.90;;;;;;4808907;29;20052;-64
2022/06/24 08:04:00;;;;;;;12.43;6.38;;;21.50;99.90;;;;;;4825116;29;20096;-62
2022/06/24 08:06:26;;;;;;;12.18;6.50;;;21.50;99.90;;;;;;4825259;29;20100;-62
2022/06/24 08:08:52;;;;;;;10.90;5.70;;;21.50;99.90;;;;;;4808731;29;20066;-62
2022/06/24 08:11:18;;;;;;;9.05;5.65;;;21.50;99.90;;;;;;4825424;29;20351;-62
2022/06/24 08:13:44;;;;;;;10.85;5.38;;;21.50;99.90;;;;;;4808353;29;20050;-62
2022/06/24 08:16:09;;;;;;;8.75;5.55;;;21.50;99.90;;;;;;4824871;29;20504;-63
2022/06/24 08:18:35;;;;;;;12.18;6.53;;;21.60;99.90;;;;;;4825096;29;20050;-63
2022/06/24 08:21:01;;;;;;;10.52;5.60;;;21.60;99.90;;;;;;4824840;29;20167;-62
2022/06/24 08:23:26;;;;;;;9.38;5.78;;;21.60;99.90;;;;;;4808995;29;20051;-63
2022/06/24 08:25:52;;;;;;;8.88;5.25;;;21.60;99.90;;;;;;4824790;29;20119;-63
2022/06/24 08:28:18;;;;;;;9.73;5.60;;;21.60;99.90;;;;;;4824486;29;20138;-63
2022/06/24 08:30:44;;;;;;;8.45;4.68;;;21.60;99.90;;;;;;4824790;29;20057;-63
2022/06/24 08:33:10;;;;;;;6.07;4.50;;;21.60;99.90;;;;;;4824408;29;20046;-62
2022/06/24 08:35:36;;;;;;;8.20;4.70;;;21.60;99.90;;;;;;4824136;29;20054;-63
2022/06/24 08:38:02;;;;;;;5.53;3.85;;;21.60;99.90;;;;;;4823793;29;20141;-63
2022/06/24 08:40:29;;;;;;;5.53;3.30;;;21.70;99.90;;;;;;4824230;29;20046;-62
2022/06/24 08:42:57;;;;;;;9.05;3.97;;;21.70;99.90;;;;;;4824337;29;20058;-62
2022/06/24 08:45:23;;;;;;;5.70;3.38;;;21.70;99.90;;;;;;4808083;29;20070;-62
2022/06/24 08:47:49;;;;;;;7.57;3.63;;;21.70;99.90;;;;;;4824148;29;20054;-61
2022/06/24 08:50:16;;;;;;;8.70;4.03;;;21.70;99.90;;;;;;4824150;29;20060;-61
2022/06/24 08:52:47;;;;;;;12.02;4.47;;;21.60;99.90;;;;;;4824122;29;20485;-65
2022/06/24 08:55:16;;;;;;;8.82;4.70;;;21.60;99.90;;;;;;4824126;29;20065;-62
2022/06/24 08:57:43;;;;;;;9.38;3.95;;;21.60;99.90;;;;;;4822727;29;20058;-70
2022/06/24 09:00:09;;;;;;;10.77;5.00;;;21.60;99.90;;;;;;4792564;29;20058;-62
2022/06/24 09:02:35;;;;;;;9.60;4.30;;;21.60;99.90;;;;;;4807900;29;20317;-62
2022/06/24 09:05:10;;;;;;;8.45;4.30;;;21.60;99.90;;;;;;4823998;29;20389;-63
2022/06/24 09:07:36;;;;;;;8.20;3.90;;;21.60;99.90;;;;;;4824520;29;20065;-62
2022/06/24 09:10:10;;;;;;;9.10;3.90;;;21.70;99.90;;;;;;4807950;29;20058;-62
2022/06/24 09:12:44;;;;;;;9.50;4.28;;;21.60;99.90;;;;;;4824184;29;20384;-66
2022/06/24 09:15:12;;;;;;;8.77;3.88;;;21.50;99.90;;;;;;4824188;29;20053;-63
2022/06/24 09:17:38;;;;;;;9.35;4.30;;;21.50;99.90;;;;;;4823927;29;20138;-63
2022/06/24 09:20:13;;;;;;;9.07;4.20;;;21.40;99.90;;;;;;4823544;29;20053;-63
2022/06/24 09:22:39;;;;;;;8.38;4.20;;;21.50;99.90;;;;;;4823939;29;20465;-63
2022/06/24 09:25:06;;;;;;;11.38;4.78;;;21.50;99.90;;;;;;4823781;29;20385;-63
2022/06/24 09:27:33;;;;;;;8.93;4.53;;;21.60;99.90;;;;;;4823770;29;20075;-63
2022/06/24 09:29:58;;;;;;;9.23;4.30;;;21.60;99.90;;;;;;4823736;29;20059;-62
2022/06/24 09:32:24;;;;;;;12.25;4.43;;;21.60;99.90;;;;;;4823841;29;20381;-62
2022/06/24 09:35:07;;;;;;;7.15;4.30;;;21.50;99.90;;;;;;4806676;29;20056;-63
2022/06/24 09:37:44;;;;;;;6.95;3.95;;;21.50;99.90;;;;;;4822987;29;20436;-62
2022/06/24 09:40:21;;;;;;;8.43;4.07;;;21.50;99.90;;;;;;4823508;29;20187;-61
2022/06/24 09:43:00;;;;;;;10.02;4.43;;;21.50;99.90;;;;;;4823604;29;20173;-63
2022/06/24 09:45:55;;;;;;;8.40;4.75;;;21.40;99.90;;;;;;4823676;29;20058;-61
2022/06/24 09:48:33;;;;;;;10.73;4.78;;;21.40;99.90;;;;;;4823610;29;20447;-62
2022/06/24 09:51:03;;;;;;;6.72;4.35;;;21.30;99.90;;;;;;4807321;29;20093;-63
2022/06/24 09:53:32;;;;;;;9.50;4.78;;;21.30;99.90;;;;;;4823364;29;20057;-63
2022/06/24 09:55:59;;;;;;;7.75;4.47;;;21.30;99.90;;;;;;4807116;29;20455;-61
2022/06/24 09:58:25;;;;;;;10.30;4.72;;;21.30;99.90;;;;;;4823341;29;20082;-62
2022/06/24 10:00:51;;;;;;;10.10;5.07;;;21.20;99.90;;;;;;4823119;29;20088;-69
2022/06/24 10:03:17;;;;;;;10.75;5.60;;;21.30;99.90;;;;;;4823528;29;20047;-63
2022/06/24 10:05:51;;;;;;;7.18;4.53;;;21.20;99.90;;;;;;4807144;29;20055;-62
2022/06/24 10:08:22;;;;;;;8.63;4.70;;;21.20;99.90;;;;;;4823703;29;20489;-62
2022/06/24 10:10:53;;;;;;;7.88;4.55;;;21.20;99.90;;;;;;4822525;29;20046;-64
2022/06/24 10:13:29;;;;;;;9.35;4.57;;;21.20;99.90;;;;;;4823410;29;20061;-61
2022/06/24 10:16:03;;;;;;;8.30;4.53;;;21.30;99.90;;;;;;4823096;29;20061;-62
2022/06/24 10:18:37;;;;;;;9.93;4.90;;;21.20;99.90;;;;;;4807295;29;20123;-62
2022/06/24 10:21:05;;;;;;;8.02;4.38;;;21.20;99.90;;;;;;4823093;29;20529;-62
2022/06/24 10:23:45;;;;;;;6.97;4.22;;;21.20;99.90;;;;;;4823242;29;20058;-61
2022/06/24 10:26:31;;;;;;;9.40;5.07;;;21.20;99.90;;;;;;4822895;29;20054;-62
2022/06/24 10:29:02;;;;;;;8.60;4.50;;;21.10;99.90;;;;;;4821894;29;20054;-62
2022/06/24 10:31:48;;;;;;;8.40;4.55;;;21.10;99.90;;;;;;4806618;29;20075;-63
2022/06/24 10:34:23;;;;;;;7.18;4.97;;;21.10;99.90;;;;;;4806463;29;20046;-62
2022/06/24 10:36:50;;;;;;;8.73;5.20;;;20.90;99.90;;;;;;4822847;29;20054;-62
2022/06/24 10:39:22;;;;;;;6.63;5.00;;;20.90;99.90;;;;;;4822383;29;20520;-62
2022/06/24 10:42:05;;;;;;;8.13;4.93;;;20.90;99.90;;;;;;4822614;29;20050;-65
2022/06/24 10:44:36;;;;;;;8.63;5.70;;;20.80;99.90;;;;;;4806098;29;20082;-65
2022/06/24 10:47:04;;;;;;;9.13;6.03;;;20.80;99.90;;;;;;4806026;29;20104;-64
2022/06/24 10:49:54;;;;;;;11.77;6.70;;;20.80;99.90;;;;;;4822896;29;20054;-63
2022/06/24 10:52:36;;;;;;;10.38;6.10;;;20.70;99.90;;;;;;4810729;29;20054;-63
2022/06/24 10:58:05;;;;;;;10.05;6.80;;;20.60;99.90;;;;;;4822727;29;20054;-63
2022/06/24 11:00:37;;;;;;;8.50;5.55;;;20.50;99.90;;;;;;4822682;29;20378;-63
2022/06/24 11:03:02;;;;;;;7.53;5.13;;;20.40;99.90;;;;;;4822324;29;20046;-63
2022/06/24 11:05:37;;;;;;;6.43;5.05;;;20.20;99.90;;;;;;4791406;29;20209;-63
2022/06/24 11:08:19;;;;;;;6.25;5.03;;;20.10;99.90;;;;;;4822251;29;20145;-64
2022/06/24 11:10:47;;;;;;;7.93;5.57;;;20.00;99.90;;;;;;4822495;29;20077;-63
2022/06/24 11:13:13;;;;;;;6.75;4.90;;;19.90;99.90;;;;;;4805665;29;20134;-64
2022/06/24 11:15:42;;;;;;;8.18;4.10;;;19.80;99.90;;;;;;4822587;29;20170;-63
2022/06/24 11:18:10;;;;;;;5.55;3.20;;;19.70;99.90;;;;;;4822016;29;20056;-64
2022/06/24 11:20:39;;;;;;;6.10;3.22;;;19.60;99.90;;;;;;4822205;29;20443;-65
2022/06/24 11:23:13;;;;;;;5.28;2.90;;;19.60;99.90;;;;;;4807845;29;20066;-66
2022/06/24 11:25:51;;;;;;;6.13;3.17;;;19.50;99.90;;;;;;4825968;29;20352;-68
2022/06/24 11:28:28;;;;;;;6.93;3.10;;;19.50;99.90;;;;;;4825582;29;20501;-65
2022/06/24 11:30:55;;;;;;;5.63;3.20;;;19.40;99.90;;;;;;4809568;29;20090;-64
2022/06/24 11:33:22;;;;;;;5.53;3.10;;;19.40;99.90;;;;;;4825447;29;20039;-65
2022/06/24 11:35:51;;;;;;;3.97;3.20;;;19.40;99.90;;;;;;4809453;29;20508;-64
2022/06/24 11:38:22;;;;;;;6.90;3.40;;;19.50;99.90;;;;;;4825295;29;20057;-64
2022/06/24 11:40:49;;;;;;;5.63;3.30;;;19.50;99.90;;;;;;4825554;29;20058;-64
2022/06/24 11:43:15;;;;;;;5.85;3.40;;;19.50;99.90;;;;;;4794395;29;20058;-67
2022/06/24 11:45:47;;;;;;;7.10;3.70;;;19.50;99.90;;;;;;4809394;29;20054;-65
2022/06/24 11:48:20;;;;;;;5.60;3.97;;;19.40;99.90;;;;;;4809165;29;20081;-65
2022/06/24 11:50:45;;;;;;;7.05;3.58;;;19.50;99.90;;;;;;4825235;29;20461;-66
2022/06/24 11:53:11;;;;;;;5.93;3.78;;;19.40;99.90;;;;;;4824988;29;20093;-66
2022/06/24 11:55:39;;;;;;;5.90;4.00;;;19.40;99.90;;;;;;4794047;29;20050;-65
2022/06/24 11:58:07;;;;;;;5.30;4.15;;;19.40;99.90;;;;;;4809048;29;20046;-66
2022/06/24 12:00:37;;;;;;;5.70;3.95;;;19.40;99.90;;;;;;4825310;29;20085;-65
2022/06/24 12:03:10;;;;;;;6.15;3.90;;;19.40;99.90;;;;;;4825176;29;20056;-65
2022/06/24 12:05:44;;;;;;;6.68;3.55;;;19.40;99.90;;;;;;4825292;29;20409;-65
2022/06/24 12:08:10;;;;;;;6.90;3.20;;;19.40;99.90;;;;;;4793750;29;20133;-62
2022/06/24 12:10:48;;;;;;;4.47;3.05;;;19.30;99.90;;;;;;4825176;29;20464;-63
2022/06/24 12:13:27;;;;;;;5.80;3.22;;;19.40;99.90;;;;;;4824783;29;20046;-63
2022/06/24 12:15:54;;;;;;;6.45;3.00;;;19.50;99.90;;;;;;4825118;29;20058;-65
2022/06/24 12:18:24;;;;;;;4.82;2.70;;;19.50;99.90;;;;;;4824298;29;20125;-64
2022/06/24 12:20:58;;;;;;;6.45;3.13;;;19.60;99.90;;;;;;4824832;29;20050;-64
2022/06/24 12:23:25;;;;;;;5.07;3.05;;;19.50;99.90;;;;;;4824049;29;20130;-61
2022/06/24 12:25:52;;;;;;;6.72;3.00;;;19.50;99.90;;;;;;4824715;29;20058;-61
2022/06/24 12:28:23;;;;;;;4.95;2.90;;;19.40;99.90;;;;;;4824491;29;20062;-62
2022/06/24 12:31:01;;;;;;;6.13;2.72;;;19.40;99.90;;;;;;4825081;29;20102;-62
2022/06/24 12:33:29;;;;;;;5.68;3.22;;;19.40;99.90;;;;;;4807912;29;20486;-61
2022/06/24 12:36:16;;;;;;;3.92;2.60;;;19.30;99.90;;;;;;4824805;29;20058;-62
2022/06/24 12:38:48;;;;;;;4.28;2.80;;;19.30;99.90;;;;;;4824870;29;20141;-65
2022/06/24 12:41:18;;;;;;;5.38;3.20;;;19.30;99.90;;;;;;4824565;29;20054;-64
2022/06/24 12:44:00;;;;;;;5.45;2.95;;;19.30;99.90;;;;;;4824825;29;20062;-62
2022/06/24 12:50:35;;;;;;;5.82;3.30;;;19.40;99.90;;;;;;4808158;29;20413;-62
2022/06/24 12:52:09;;;;;;;6.22;3.22;;;19.70;99.90;;;;;;4824569;29;20061;-63
2022/06/24 12:54:35;;;;;;;7.03;3.47;;;19.80;99.90;;;;;;4808498;29;20046;-63
2022/06/24 12:57:01;;;;;;;4.43;2.95;;;19.80;99.90;;;;;;4808512;29;20058;-64
2022/06/24 12:59:30;;;;;;;5.60;3.35;;;19.90;99.90;;;;;;4793412;29;20509;-63
2022/06/24 13:01:56;;;;;;;4.57;3.25;;;19.90;99.90;;;;;;4824821;29;20046;-62
2022/06/24 13:04:22;;;;;;;3.90;2.85;;;20.00;99.90;;;;;;4807997;29;20435;-63
2022/06/24 13:06:48;;;;;;;5.15;3.17;;;20.10;99.90;;;;;;4808404;29;20091;-64
2022/06/24 13:09:14;;;;;;;4.47;3.30;;;20.30;99.90;;;;;;4824338;29;20164;-63